createdAt,value
2019-06-08T00:02:14.691Z,97641.17
2019-06-08T00:04:41.631Z,97649.10
2019-06-08T00:07:08.360Z,97652.75
2019-06-08T00:09:35.044Z,97652.91
2019-06-08T00:12:01.936Z,97657.04
2019-06-08T00:14:28.726Z,97660.77
2019-06-08T00:16:55.519Z,97679.45
2019-06-08T00:19:23.560Z,97678.66
2019-06-08T00:21:50.466Z,97690.45
2019-06-08T00:24:17.794Z,97692.89
2019-06-08T00:26:44.612Z,97692.24
2019-06-08T00:29:11.405Z,97696.84
2019-06-08T00:31:38.274Z,97695.55
2019-06-08T00:34:05.053Z,97690.49
2019-06-08T00:36:31.837Z,97698.42
2019-06-08T00:38:58.658Z,97705.29
2019-06-08T00:41:25.506Z,97695.02
2019-06-08T00:43:52.542Z,97693.94
2019-06-08T00:46:19.439Z,97697.09
2019-06-08T00:48:46.189Z,97698.95
2019-06-08T00:51:12.853Z,97697.09
2019-06-08T00:53:39.591Z,97704.92
2019-06-08T00:56:06.374Z,97707.78
2019-06-08T00:58:33.163Z,97713.92
2019-06-08T01:01:00.109Z,97716.27
2019-06-08T01:03:26.895Z,97715.14
2019-06-08T01:05:53.658Z,97716.03
2019-06-08T01:08:22.090Z,97715.13
2019-06-08T01:10:49.416Z,97725.39
2019-06-08T01:13:16.330Z,97729.66
2019-06-08T01:15:43.220Z,97733.30
2019-06-08T01:18:10.017Z,97728.76
2019-06-08T01:20:36.721Z,97739.92
2019-06-08T01:23:03.503Z,97744.20
2019-06-08T01:25:30.261Z,97751.63
2019-06-08T01:27:57.118Z,97754.13
2019-06-08T01:30:24.224Z,97749.52
2019-06-08T01:32:51.058Z,97749.73
2019-06-08T01:35:17.731Z,97756.28
2019-06-08T01:37:44.381Z,97750.96
2019-06-08T01:40:11.128Z,97759.03
2019-06-08T01:42:37.827Z,97763.39
2019-06-08T01:45:04.745Z,97760.40
2019-06-08T01:47:32.404Z,97750.79
2019-06-08T01:49:59.235Z,97752.90
2019-06-08T01:52:27.131Z,97750.05
2019-06-08T01:54:53.924Z,97754.09
2019-06-08T01:57:20.601Z,97759.48
2019-06-08T01:59:47.163Z,97757.05
2019-06-08T02:02:13.877Z,97766.84
2019-06-08T02:04:40.682Z,97761.91
2019-06-08T02:07:07.352Z,97750.50
2019-06-08T02:09:34.845Z,97757.20
2019-06-08T02:12:01.660Z,97756.45
2019-06-08T02:14:29.147Z,97763.39
2019-06-08T02:16:56.962Z,97759.52
2019-06-08T02:19:23.784Z,97762.33
2019-06-08T02:21:50.685Z,97767.33
2019-06-08T02:24:18.468Z,97770.23
2019-06-08T02:26:47.803Z,97771.36
2019-06-08T02:29:14.461Z,97767.84
2019-06-08T02:31:42.002Z,97763.41
2019-06-08T02:34:08.845Z,97768.16
2019-06-08T02:36:37.618Z,97765.98
2019-06-08T02:39:06.159Z,97778.51
2019-06-08T02:41:33.155Z,97785.19
2019-06-08T02:44:00.072Z,97788.50
2019-06-08T02:46:26.755Z,97799.22
2019-06-08T02:49:03.605Z,97818.63
2019-06-08T02:51:22.833Z,97804.34
2019-06-08T02:53:49.730Z,97808.70
2019-06-08T02:56:17.702Z,97820.92
2019-06-08T02:58:45.288Z,97831.19
2019-06-08T03:01:13.184Z,97843.08
2019-06-08T03:03:40.312Z,97851.75
2019-06-08T03:06:07.066Z,97854.06
2019-06-08T03:08:38.960Z,97860.17
2019-06-08T03:11:05.887Z,97856.30
2019-06-08T03:13:33.929Z,97856.05
2019-06-08T03:16:02.306Z,97864.19
2019-06-08T03:18:29.006Z,97859.27
2019-06-08T03:20:55.839Z,97868.52
2019-06-08T03:23:22.603Z,97879.71
2019-06-08T03:25:53.075Z,97878.15
2019-06-08T03:28:17.640Z,97878.08
2019-06-08T03:30:52.450Z,97881.06
2019-06-08T03:33:13.044Z,97869.71
2019-06-08T03:35:52.687Z,97868.53
2019-06-08T03:38:09.358Z,97875.33
2019-06-08T03:40:38.017Z,97884.38
2019-06-08T03:43:04.781Z,97885.80
2019-06-08T03:45:31.535Z,97898.70
2019-06-08T03:47:58.333Z,97895.20
2019-06-08T03:50:24.997Z,97895.41
2019-06-08T03:52:51.743Z,97898.14
2019-06-08T03:55:18.297Z,97896.83
2019-06-08T03:57:46.331Z,97898.04
2019-06-08T04:00:13.933Z,97906.52
2019-06-08T04:02:42.323Z,97906.33
2019-06-08T04:05:09.413Z,97915.67
2019-06-08T04:07:37.598Z,97920.77
2019-06-08T04:10:04.543Z,97921.27
2019-06-08T04:12:31.095Z,97934.73
2019-06-08T04:14:57.744Z,97946.87
2019-06-08T04:17:24.318Z,97945.19
2019-06-08T04:20:09.670Z,97941.89
2019-06-08T04:22:19.463Z,97951.54
2019-06-08T04:24:46.646Z,97950.42
2019-06-08T04:27:13.266Z,97945.69
2019-06-08T04:29:41.668Z,97946.20
2019-06-08T04:32:08.612Z,97947.72
2019-06-08T04:34:35.186Z,97949.14
2019-06-08T04:37:02.262Z,97944.22
2019-06-08T04:39:28.994Z,97943.70
2019-06-08T04:41:55.655Z,97954.12
2019-06-08T04:44:22.211Z,97954.17
2019-06-08T04:46:49.546Z,97960.06
2019-06-08T04:49:16.824Z,97968.28
2019-06-08T04:51:45.245Z,97974.58
2019-06-08T04:54:14.587Z,97975.95
2019-06-08T04:56:40.965Z,97977.89
2019-06-08T04:59:07.860Z,97986.88
2019-06-08T05:01:34.437Z,97992.91
2019-06-08T05:04:01.099Z,98000.00
2019-06-08T05:06:27.651Z,98002.07
2019-06-08T05:08:54.328Z,98003.50
2019-06-08T05:11:20.987Z,98005.68
2019-06-08T05:13:48.115Z,97990.59
2019-06-08T05:16:16.053Z,97984.80
2019-06-08T05:18:43.161Z,97994.09
2019-06-08T05:21:09.982Z,98001.01
2019-06-08T05:23:36.859Z,98004.70
2019-06-08T05:26:03.532Z,98007.44
2019-06-08T05:28:30.303Z,98012.59
2019-06-08T05:30:56.898Z,98021.77
2019-06-08T05:33:23.444Z,98021.77
2019-06-08T05:35:50.141Z,98026.55
2019-06-08T05:38:16.789Z,98035.23
2019-06-08T05:40:43.623Z,98037.61
2019-06-08T05:43:10.413Z,98042.45
2019-06-08T05:45:37.334Z,98050.18
2019-06-08T05:48:03.988Z,98051.63
2019-06-08T05:50:30.669Z,98061.53
2019-06-08T05:52:57.444Z,98065.09
2019-06-08T05:55:24.002Z,98072.77
2019-06-08T05:57:50.683Z,98075.30
2019-06-08T06:00:17.458Z,98081.59
2019-06-08T06:02:44.794Z,98092.31
2019-06-08T06:05:12.648Z,98093.17
2019-06-08T06:07:40.548Z,98098.96
2019-06-08T06:10:08.746Z,98107.59
2019-06-08T06:12:35.676Z,98109.77
2019-06-08T06:15:02.683Z,98110.63
2019-06-08T06:17:29.384Z,98107.68
2019-06-08T06:19:56.551Z,98111.23
2019-06-08T06:22:23.215Z,98122.62
2019-06-08T06:24:49.968Z,98122.00
2019-06-08T06:27:17.857Z,98109.87
2019-06-08T06:29:45.475Z,98126.48
2019-06-08T06:32:12.298Z,98133.85
2019-06-08T06:34:41.992Z,98128.11
2019-06-08T06:37:09.006Z,98136.08
2019-06-08T06:39:35.707Z,98130.90
2019-06-08T06:42:02.547Z,98141.00
2019-06-08T06:44:29.116Z,98140.23
2019-06-08T06:47:10.287Z,98141.19
2019-06-08T06:49:37.300Z,98144.74
2019-06-08T06:52:09.949Z,98153.78
2019-06-08T06:54:36.641Z,98160.03
2019-06-08T06:57:03.584Z,98166.41
2019-06-08T06:59:30.328Z,98154.93
2019-06-08T07:01:57.755Z,98158.74
2019-06-08T07:04:24.645Z,98159.77
2019-06-08T07:06:52.251Z,98156.94
2019-06-08T07:09:19.044Z,98159.89
2019-06-08T07:11:46.851Z,98159.83
2019-06-08T07:14:13.719Z,98170.75
2019-06-08T07:16:40.376Z,98161.45
2019-06-08T07:19:06.957Z,98159.78
2019-06-08T07:21:41.589Z,98162.22
2019-06-08T07:24:02.451Z,98163.80
2019-06-08T07:26:29.356Z,98166.45
2019-06-08T07:28:56.033Z,98170.70
2019-06-08T07:31:22.759Z,98172.63
2019-06-08T07:33:53.641Z,98184.61
2019-06-08T07:36:20.585Z,98184.06
2019-06-08T07:38:48.379Z,98181.31
2019-06-08T07:41:15.741Z,98182.17
2019-06-08T07:43:44.171Z,98182.13
2019-06-08T07:46:10.856Z,98171.67
2019-06-08T07:48:37.723Z,98178.45
2019-06-08T07:51:04.553Z,98184.72
2019-06-08T07:53:31.230Z,98189.42
2019-06-08T07:55:58.159Z,98191.57
2019-06-08T07:58:25.045Z,98194.31
2019-06-08T08:00:52.994Z,98202.44
2019-06-08T08:03:20.576Z,98196.91
2019-06-08T08:05:48.170Z,98191.22
2019-06-08T08:08:14.808Z,98200.08
2019-06-08T08:10:41.809Z,98197.67
2019-06-08T08:13:08.500Z,98205.09
2019-06-08T08:15:37.305Z,98207.78
2019-06-08T08:18:04.181Z,98204.45
2019-06-08T08:20:30.958Z,98216.52
2019-06-08T08:23:04.156Z,98209.08
2019-06-08T08:25:28.167Z,98208.22
2019-06-08T08:28:01.205Z,98209.03
2019-06-08T08:30:28.421Z,98218.08
2019-06-08T08:33:03.621Z,98204.88
2019-06-08T08:35:30.290Z,98208.11
2019-06-08T08:38:04.035Z,98214.10
2019-06-08T08:40:31.854Z,98207.42
2019-06-08T08:43:09.337Z,98211.49
2019-06-08T08:45:37.353Z,98211.53
2019-06-08T08:48:25.450Z,98213.94
2019-06-08T08:50:44.414Z,98216.94
2019-06-08T08:53:11.221Z,98215.65
2019-06-08T08:55:38.153Z,98212.73
2019-06-08T08:58:05.103Z,98220.62
2019-06-08T09:00:31.895Z,98214.58
2019-06-08T09:03:22.005Z,98222.29
2019-06-08T09:05:34.877Z,98219.03
2019-06-08T09:08:03.974Z,98216.20
2019-06-08T09:10:31.768Z,98218.86
2019-06-08T09:13:01.779Z,98224.81
2019-06-08T09:15:31.205Z,98227.22
2019-06-08T09:17:58.742Z,98226.36
2019-06-08T09:20:24.669Z,98230.02
2019-06-08T09:22:58.856Z,98227.48
2019-06-08T09:25:20.332Z,98226.02
2019-06-08T09:27:48.238Z,98228.97
2019-06-08T09:30:18.373Z,98231.42
2019-06-08T09:32:47.592Z,98237.67
2019-06-08T09:35:13.909Z,98237.67
2019-06-08T09:37:40.684Z,98242.30
2019-06-08T09:40:08.552Z,98244.66
2019-06-08T09:42:35.443Z,98244.92
2019-06-08T09:45:05.157Z,98247.27
2019-06-08T09:47:31.549Z,98244.69
2019-06-08T09:50:01.516Z,98246.31
2019-06-08T09:52:28.168Z,98251.20
2019-06-08T09:54:56.957Z,98251.74
2019-06-08T09:57:24.222Z,98255.00
2019-06-08T09:59:51.012Z,98255.00
2019-06-08T10:02:18.504Z,98257.48
2019-06-08T10:04:45.518Z,98253.38
2019-06-08T10:07:13.518Z,98253.18
2019-06-08T10:09:43.262Z,98249.57
2019-06-08T10:12:09.985Z,98250.63
2019-06-08T10:14:38.736Z,98248.27
2019-06-08T10:17:06.654Z,98245.98
2019-06-08T10:19:34.185Z,98251.16
2019-06-08T10:22:01.139Z,98252.64
2019-06-08T10:24:28.009Z,98246.97
2019-06-08T10:26:55.263Z,98249.87
2019-06-08T10:29:21.851Z,98256.47
2019-06-08T10:31:48.745Z,98255.78
2019-06-08T10:34:16.621Z,98250.42
2019-06-08T10:36:43.579Z,98256.16
2019-06-08T10:39:11.857Z,98245.27
2019-06-08T10:41:39.082Z,98248.41
2019-06-08T10:44:11.186Z,98250.48
2019-06-08T10:46:34.586Z,98242.14
2019-06-08T10:49:01.932Z,98244.90
2019-06-08T10:51:28.950Z,98251.19
2019-06-08T10:53:55.791Z,98250.63
2019-06-08T10:56:22.664Z,98249.34
2019-06-08T10:58:49.894Z,98250.27
2019-06-08T11:01:18.692Z,98244.56
2019-06-08T11:03:45.081Z,98252.42
2019-06-08T11:06:13.288Z,98251.52
2019-06-08T11:08:40.452Z,98248.52
2019-06-08T11:11:11.321Z,98244.19
2019-06-08T11:13:36.311Z,98249.55
2019-06-08T11:16:04.448Z,98247.54
2019-06-08T11:18:32.163Z,98246.52
2019-06-08T11:21:00.790Z,98249.94
2019-06-08T11:23:28.805Z,98243.05
2019-06-08T11:26:03.264Z,98251.21
2019-06-08T11:28:24.577Z,98248.36
2019-06-08T11:30:51.440Z,98244.15
2019-06-08T11:33:20.254Z,98231.77
2019-06-08T11:35:47.914Z,98227.47
2019-06-08T11:38:17.471Z,98231.30
2019-06-08T11:40:43.550Z,98230.56
2019-06-08T11:43:10.674Z,98237.11
2019-06-08T11:45:37.985Z,98232.73
2019-06-08T11:48:06.384Z,98224.14
2019-06-08T11:50:35.665Z,98212.41
2019-06-08T11:53:03.737Z,98221.83
2019-06-08T11:55:30.996Z,98224.34
2019-06-08T11:57:58.617Z,98222.70
2019-06-08T12:01:01.899Z,98224.30
2019-06-08T12:03:30.459Z,98217.70
2019-06-08T12:05:58.288Z,98219.41
2019-06-08T12:08:28.173Z,98215.12
2019-06-08T12:10:53.972Z,98214.47
2019-06-08T12:13:20.588Z,98221.77
2019-06-08T12:15:49.527Z,98216.50
2019-06-08T12:18:18.114Z,98207.45
2019-06-08T12:20:45.202Z,98207.92
2019-06-08T12:23:12.110Z,98210.16
2019-06-08T12:25:38.921Z,98209.17
2019-06-08T12:28:06.639Z,98197.89
2019-06-08T12:30:34.263Z,98200.05
2019-06-08T12:33:00.975Z,98200.27
2019-06-08T12:35:28.387Z,98197.63
2019-06-08T12:37:58.110Z,98189.99
2019-06-08T12:40:28.112Z,98197.49
2019-06-08T12:42:54.920Z,98200.55
2019-06-08T12:45:21.660Z,98199.71
2019-06-08T12:47:48.351Z,98202.86
2019-06-08T12:50:16.530Z,98201.99
2019-06-08T12:52:43.391Z,98208.38
2019-06-08T12:55:14.281Z,98207.28
2019-06-08T12:57:40.113Z,98205.50
2019-06-08T13:00:09.366Z,98207.81
2019-06-08T13:02:39.252Z,98209.14
2019-06-08T13:05:11.587Z,98203.64
2019-06-08T13:07:34.864Z,98205.06
2019-06-08T13:10:01.714Z,98201.87
2019-06-08T13:12:28.403Z,98212.38
2019-06-08T13:14:55.098Z,98213.72
2019-06-08T13:17:21.956Z,98198.59
2019-06-08T13:19:48.755Z,98198.52
2019-06-08T13:22:15.573Z,98203.59
2019-06-08T13:24:43.950Z,98191.95
2019-06-08T13:27:13.686Z,98190.91
2019-06-08T13:29:39.247Z,98201.66
2019-06-08T13:32:07.853Z,98204.87
2019-06-08T13:34:34.902Z,98202.36
2019-06-08T13:37:01.606Z,98204.97
2019-06-08T13:39:28.370Z,98205.82
2019-06-08T13:41:55.114Z,98194.94
2019-06-08T13:44:22.034Z,98193.50
2019-06-08T13:46:49.044Z,98198.62
2019-06-08T13:49:18.576Z,98192.55
2019-06-08T13:51:44.504Z,98196.72
2019-06-08T13:54:11.339Z,98193.72
2019-06-08T13:56:39.750Z,98194.07
2019-06-08T13:59:08.017Z,98194.87
2019-06-08T14:01:37.295Z,98191.36
2019-06-08T14:04:03.597Z,98187.65
2019-06-08T14:06:30.318Z,98192.72
2019-06-08T14:08:58.006Z,98188.77
2019-06-08T14:11:25.266Z,98193.22
2019-06-08T14:13:53.046Z,98184.56
2019-06-08T14:16:21.845Z,98185.81
2019-06-08T14:18:48.663Z,98184.71
2019-06-08T14:21:17.205Z,98179.28
2019-06-08T14:23:44.200Z,98182.38
2019-06-08T14:26:10.896Z,98184.64
2019-06-08T14:28:38.062Z,98178.09
2019-06-08T14:31:05.191Z,98177.38
2019-06-08T14:33:33.678Z,98179.22
2019-06-08T14:36:00.712Z,98179.17
2019-06-08T14:38:35.452Z,98180.20
2019-06-08T14:40:56.365Z,98165.22
2019-06-08T14:43:23.075Z,98175.23
2019-06-08T14:45:49.885Z,98171.98
2019-06-08T14:48:18.970Z,98169.36
2019-06-08T14:50:45.007Z,98172.84
2019-06-08T14:53:11.928Z,98170.73
2019-06-08T14:55:38.894Z,98163.39
2019-06-08T14:58:08.414Z,98165.53
2019-06-08T15:00:37.846Z,98159.97
2019-06-08T15:03:03.923Z,98162.52
2019-06-08T15:05:32.286Z,98154.86
2019-06-08T15:08:01.119Z,98158.44
2019-06-08T15:10:28.479Z,98160.13
2019-06-08T15:12:57.839Z,98158.25
2019-06-08T15:15:25.884Z,98165.99
2019-06-08T15:17:53.324Z,98152.68
2019-06-08T15:20:22.269Z,98155.72
2019-06-08T15:22:49.057Z,98148.36
2019-06-08T15:25:18.398Z,98150.65
2019-06-08T15:27:44.508Z,98144.70
2019-06-08T15:30:11.814Z,98150.52
2019-06-08T15:32:38.778Z,98147.64
2019-06-08T15:35:08.078Z,98139.38
2019-06-08T15:37:34.553Z,98144.12
2019-06-08T15:40:01.354Z,98144.62
2019-06-08T15:42:29.119Z,98139.41
2019-06-08T15:44:59.432Z,98129.81
2019-06-08T15:47:26.171Z,98135.03
2019-06-08T15:49:53.267Z,98132.06
2019-06-08T15:52:19.979Z,98130.55
2019-06-08T15:54:48.421Z,98133.29
2019-06-08T15:57:15.157Z,98130.28
2019-06-08T15:59:42.108Z,98129.70
2019-06-08T16:02:08.853Z,98126.82
2019-06-08T16:04:35.611Z,98120.33
2019-06-08T16:07:02.285Z,98120.22
2019-06-08T16:09:29.981Z,98115.40
2019-06-08T16:11:59.458Z,98115.64
2019-06-08T16:14:26.648Z,98113.09
2019-06-08T16:16:53.457Z,98115.19
2019-06-08T16:19:20.257Z,98107.80
2019-06-08T16:21:46.846Z,98114.86
2019-06-08T16:24:13.542Z,98111.55
2019-06-08T16:26:52.278Z,98112.36
2019-06-08T16:29:08.879Z,98118.95
2019-06-08T16:31:35.621Z,98111.33
2019-06-08T16:34:02.305Z,98115.25
2019-06-08T16:36:29.375Z,98121.52
2019-06-08T16:38:56.291Z,98118.05
2019-06-08T16:41:22.952Z,98112.94
2019-06-08T16:43:49.705Z,98118.25
2019-06-08T16:46:16.384Z,98116.63
2019-06-08T16:48:43.157Z,98111.89
2019-06-08T16:51:09.725Z,98115.58
2019-06-08T16:53:36.520Z,98116.76
2019-06-08T16:56:03.338Z,98111.78
2019-06-08T16:58:30.078Z,98112.70
2019-06-08T17:00:56.962Z,98116.73
2019-06-08T17:03:23.754Z,98117.53
2019-06-08T17:05:50.398Z,98112.58
2019-06-08T17:08:17.142Z,98115.00
2019-06-08T17:10:43.772Z,98120.65
2019-06-08T17:13:12.067Z,98116.61
2019-06-08T17:15:40.314Z,98118.55
2019-06-08T17:18:07.377Z,98123.84
2019-06-08T17:20:34.139Z,98125.58
2019-06-08T17:23:01.133Z,98126.61
2019-06-08T17:25:27.796Z,98123.20
2019-06-08T17:27:56.403Z,98123.19
2019-06-08T17:30:23.211Z,98124.09
2019-06-08T17:32:49.969Z,98128.59
2019-06-08T17:35:16.645Z,98124.34
2019-06-08T17:37:43.305Z,98119.92
2019-06-08T17:40:10.278Z,98120.16
2019-06-08T17:42:37.626Z,98122.22
2019-06-08T17:45:04.684Z,98120.03
2019-06-08T17:47:32.415Z,98118.41
2019-06-08T17:50:00.574Z,98117.00
2019-06-08T17:52:28.133Z,98110.76
2019-06-08T17:54:54.977Z,98114.09
2019-06-08T17:57:21.780Z,98111.88
2019-06-08T17:59:48.568Z,98112.69
2019-06-08T18:02:25.406Z,98113.13
2019-06-08T18:04:44.467Z,98114.60
2019-06-08T18:07:11.537Z,98105.22
2019-06-08T18:09:39.267Z,98107.51
2019-06-08T18:12:07.510Z,98113.97
2019-06-08T18:14:35.373Z,98112.12
2019-06-08T18:17:03.529Z,98103.20
2019-06-08T18:19:30.200Z,98104.16
2019-06-08T18:22:02.913Z,98104.58
2019-06-08T18:24:27.896Z,98104.20
2019-06-08T18:26:58.520Z,98105.56
2019-06-08T18:29:27.590Z,98105.02
2019-06-08T18:31:54.046Z,98104.77
2019-06-08T18:34:20.642Z,98105.20
2019-06-08T18:36:48.039Z,98103.48
2019-06-08T18:39:14.851Z,98103.23
2019-06-08T18:41:42.583Z,98107.32
2019-06-08T18:44:11.420Z,98117.50
2019-06-08T18:46:40.393Z,98119.94
2019-06-08T18:49:08.039Z,98117.50
2019-06-08T18:51:35.190Z,98117.98
2019-06-08T18:54:11.764Z,98118.09
2019-06-08T18:56:30.564Z,98122.09
2019-06-08T18:58:58.389Z,98125.55
2019-06-08T19:01:27.358Z,98128.31
2019-06-08T19:03:53.896Z,98130.91
2019-06-08T19:06:22.518Z,98131.48
2019-06-08T19:08:50.931Z,98136.34
2019-06-08T19:11:19.305Z,98142.70
2019-06-08T19:13:49.946Z,98148.46
2019-06-08T19:16:18.180Z,98139.38
2019-06-08T19:18:48.037Z,98151.38
2019-06-08T19:21:13.587Z,98144.48
2019-06-08T19:23:42.302Z,98144.41
2019-06-08T19:26:08.648Z,98150.05
2019-06-08T19:28:38.780Z,98154.42
2019-06-08T19:31:04.115Z,98155.67
2019-06-08T19:33:31.899Z,98156.97
2019-06-08T19:35:59.166Z,98158.83
2019-06-08T19:38:27.961Z,98161.09
2019-06-08T19:40:57.326Z,98157.84
2019-06-08T19:43:27.765Z,98161.24
2019-06-08T19:46:02.600Z,98161.00
2019-06-08T19:48:31.193Z,98166.43
2019-06-08T19:50:58.278Z,98168.18
2019-06-08T19:53:31.884Z,98175.70
2019-06-08T19:55:59.627Z,98179.39
2019-06-08T19:58:28.315Z,98174.05
2019-06-08T20:00:58.772Z,98172.52
2019-06-08T20:03:29.689Z,98172.51
2019-06-08T20:05:59.690Z,98175.72
2019-06-08T20:08:29.110Z,98181.51
2019-06-08T20:10:57.552Z,98180.66
2019-06-08T20:13:30.962Z,98179.34
2019-06-08T20:16:01.507Z,98175.84
2019-06-08T20:18:32.273Z,98177.33
2019-06-08T20:21:10.066Z,98185.53
2019-06-08T20:23:38.076Z,98185.00
2019-06-08T20:26:11.599Z,98185.41
2019-06-08T20:28:49.678Z,98184.94
2019-06-08T20:31:15.281Z,98193.50
2019-06-08T20:33:43.383Z,98196.80
2019-06-08T20:36:10.261Z,98192.64
2019-06-08T20:38:39.732Z,98192.64
2019-06-08T20:41:09.662Z,98198.08
2019-06-08T20:43:38.129Z,98196.64
2019-06-08T20:46:05.468Z,98197.07
2019-06-08T20:48:33.399Z,98197.63
2019-06-08T20:51:00.237Z,98196.20
2019-06-08T20:53:28.273Z,98197.12
2019-06-08T20:56:03.197Z,98203.00
2019-06-08T20:58:30.970Z,98203.26
2019-06-08T21:00:57.803Z,98205.66
2019-06-08T21:03:31.753Z,98211.09
2019-06-08T21:05:58.906Z,98211.48
2019-06-08T21:08:28.045Z,98211.52
2019-06-08T21:11:01.563Z,98204.62
2019-06-08T21:13:28.284Z,98204.94
2019-06-08T21:16:03.808Z,98201.47
2019-06-08T21:18:37.935Z,98197.73
2019-06-08T21:21:10.848Z,98202.84
2019-06-08T21:23:47.115Z,98207.68
2019-06-08T21:26:14.081Z,98214.73
2019-06-08T21:28:40.920Z,98210.57
2019-06-08T21:31:11.848Z,98214.98
2019-06-08T21:33:39.701Z,98214.78
2019-06-08T21:36:08.909Z,98217.91
2019-06-08T21:38:37.691Z,98217.16
2019-06-08T21:41:08.257Z,98214.45
2019-06-08T21:43:37.273Z,98216.34
2019-06-08T21:46:07.596Z,98219.16
2019-06-08T21:48:34.621Z,98215.77
2019-06-08T21:51:01.822Z,98214.86
2019-06-08T21:53:28.649Z,98216.01
2019-06-08T21:55:56.281Z,98214.38
2019-06-08T21:58:23.077Z,98212.27
2019-06-08T22:00:51.094Z,98217.50
2019-06-08T22:03:17.933Z,98224.65
2019-06-08T22:05:44.633Z,98217.84
2019-06-08T22:08:11.307Z,98214.62
2019-06-08T22:10:38.125Z,98213.55
2019-06-08T22:13:05.207Z,98214.39
2019-06-08T22:15:31.916Z,98218.65
2019-06-08T22:18:00.191Z,98223.02
2019-06-08T22:20:27.457Z,98223.62
2019-06-08T22:22:55.115Z,98231.84
2019-06-08T22:25:22.041Z,98229.39
2019-06-08T22:27:51.090Z,98229.66
2019-06-08T22:30:35.215Z,98220.77
2019-06-08T22:32:47.568Z,98224.14
2019-06-08T22:35:14.500Z,98231.80
2019-06-08T22:37:41.172Z,98226.66
2019-06-08T22:40:08.433Z,98226.24
2019-06-08T22:42:37.516Z,98226.05
2019-06-08T22:45:04.553Z,98224.23
2019-06-08T22:47:31.237Z,98231.11
2019-06-08T22:50:00.267Z,98229.48
2019-06-08T22:52:27.704Z,98233.63
2019-06-08T22:54:58.406Z,98237.24
2019-06-08T22:57:23.189Z,98234.02
2019-06-08T22:59:49.919Z,98227.20
2019-06-08T23:02:18.267Z,98223.36
2019-06-08T23:04:47.411Z,98225.05
2019-06-08T23:07:25.708Z,98223.23
2019-06-08T23:09:42.204Z,98227.01
2019-06-08T23:12:28.730Z,98233.00
2019-06-08T23:14:58.814Z,98234.73
2019-06-08T23:17:24.045Z,98233.88
2019-06-08T23:19:53.170Z,98233.06
2019-06-08T23:22:20.059Z,98225.15
2019-06-08T23:24:47.733Z,98226.05
2019-06-08T23:27:14.380Z,98229.93
2019-06-08T23:29:41.064Z,98228.62
2019-06-08T23:32:11.370Z,98236.02
2019-06-08T23:34:38.331Z,98246.19
2019-06-08T23:37:08.410Z,98236.52
2019-06-08T23:39:37.491Z,98242.31
2019-06-08T23:42:04.213Z,98235.14
2019-06-08T23:44:30.854Z,98250.31
2019-06-08T23:46:59.461Z,98244.52
2019-06-08T23:49:27.799Z,98244.50
2019-06-08T23:51:59.669Z,98252.73
2019-06-08T23:54:27.862Z,98252.77
2019-06-08T23:56:53.621Z,98253.08
2019-06-08T23:59:20.303Z,98257.22
